createdAt,value
2023-10-13T00:00:42.544Z,4.46
2023-10-13T00:06:07.962Z,4.41
2023-10-13T00:11:34.390Z,4.26
2023-10-13T00:22:37.677Z,4.21
2023-10-13T00:28:02.328Z,4.16
2023-10-13T00:33:25.348Z,4.20
2023-10-13T00:44:22.081Z,4.53
2023-10-13T00:49:46.650Z,4.31
2023-10-13T00:55:10.864Z,4.66
2023-10-13T01:00:33.922Z,4.78
2023-10-13T01:05:56.284Z,4.72
2023-10-13T01:11:19.368Z,4.74
2023-10-13T01:16:47.966Z,4.69
2023-10-13T01:22:11.238Z,4.53
2023-10-13T01:27:33.788Z,4.40
2023-10-13T01:32:58.695Z,4.49
2023-10-13T01:38:22.120Z,4.36
2023-10-13T01:43:44.681Z,4.19
2023-10-13T01:49:09.387Z,4.24
2023-10-13T01:54:34.030Z,4.45
2023-10-13T01:59:57.908Z,4.31
2023-10-13T02:05:20.927Z,4.13
2023-10-13T02:10:45.413Z,3.93
2023-10-13T02:16:11.489Z,3.86
2023-10-13T02:21:34.387Z,3.98
2023-10-13T02:26:56.810Z,3.91
2023-10-13T02:32:22.334Z,3.70
2023-10-13T02:37:45.783Z,3.63
2023-10-13T02:43:08.204Z,3.68
2023-10-13T02:54:17.337Z,3.58
2023-10-13T02:59:59.263Z,3.34
2023-10-13T03:05:23.627Z,3.14
2023-10-13T03:10:47.858Z,3.06
2023-10-13T03:16:12.632Z,3.28
2023-10-13T03:21:38.144Z,3.19
2023-10-13T03:27:00.662Z,3.06
2023-10-13T03:32:30.142Z,2.93
2023-10-13T03:37:52.484Z,2.88
2023-10-13T03:43:20.786Z,2.76
2023-10-13T03:48:44.823Z,2.76
2023-10-13T03:54:18.180Z,2.92
2023-10-13T03:59:41.601Z,3.00
2023-10-13T04:05:05.590Z,3.21
2023-10-13T04:10:45.419Z,3.21
2023-10-13T04:21:58.902Z,3.36
2023-10-13T04:27:47.979Z,3.36
2023-10-13T04:33:30.702Z,3.26
2023-10-13T04:39:00.308Z,3.21
2023-10-13T04:44:25.121Z,3.24
2023-10-13T04:49:49.889Z,3.23
2023-10-13T05:01:18.891Z,3.37
2023-10-13T05:06:49.719Z,3.36
2023-10-13T05:12:31.480Z,3.50
2023-10-13T05:18:13.541Z,3.61
2023-10-13T05:23:55.602Z,3.64
2023-10-13T05:29:36.311Z,3.68
2023-10-13T05:35:18.065Z,3.70
2023-10-13T05:40:59.393Z,3.64
2023-10-13T05:46:28.563Z,3.69
2023-10-13T05:57:53.551Z,3.73
2023-10-13T06:03:34.442Z,3.82
2023-10-13T06:09:16.743Z,3.92
2023-10-13T06:14:58.530Z,3.91
2023-10-13T06:20:40.893Z,4.05
2023-10-13T06:26:23.406Z,4.29
2023-10-13T06:31:47.854Z,4.34
2023-10-13T06:43:14.235Z,4.68
2023-10-13T06:48:41.847Z,4.74
2023-10-13T06:54:08.771Z,4.98
2023-10-13T06:59:34.258Z,5.17
2023-10-13T07:05:01.264Z,5.27
2023-10-13T07:10:28.240Z,5.26
2023-10-13T07:15:52.665Z,5.35
2023-10-13T07:21:20.768Z,5.54
2023-10-13T07:32:23.417Z,6.16
2023-10-13T07:37:48.526Z,6.15
2023-10-13T07:43:12.334Z,6.36
2023-10-13T07:48:37.370Z,6.43
2023-10-13T07:54:03.710Z,6.67
2023-10-13T07:59:27.729Z,6.86
2023-10-13T08:04:51.524Z,7.11
2023-10-13T08:10:17.208Z,7.31
2023-10-13T08:15:42.319Z,7.52
2023-10-13T08:21:06.468Z,7.72
2023-10-13T08:26:48.558Z,7.83
2023-10-13T08:32:17.038Z,7.92
2023-10-13T08:37:53.516Z,8.14
2023-10-13T08:43:19.022Z,8.39
2023-10-13T08:48:45.327Z,8.62
2023-10-13T08:54:14.240Z,8.78
2023-10-13T08:59:42.770Z,9.06
2023-10-13T09:05:08.925Z,9.24
2023-10-13T09:10:38.776Z,9.41
2023-10-13T09:16:03.142Z,9.56
2023-10-13T09:21:39.692Z,9.78
2023-10-13T09:27:06.854Z,9.98
2023-10-13T09:32:30.233Z,10.18
2023-10-13T09:37:55.889Z,10.34
2023-10-13T09:43:20.041Z,10.66
2023-10-13T09:49:09.392Z,10.99
2023-10-13T09:54:48.543Z,11.25
2023-10-13T10:06:18.387Z,11.75
2023-10-13T10:11:57.995Z,11.82
2023-10-13T10:17:23.139Z,11.99
2023-10-13T10:22:50.596Z,12.10
2023-10-13T10:28:22.014Z,12.29
2023-10-13T10:33:53.710Z,12.57
2023-10-13T10:39:18.901Z,12.74
2023-10-13T10:44:49.450Z,12.82
2023-10-13T10:50:22.309Z,12.98
2023-10-13T10:55:47.051Z,13.21
2023-10-13T11:01:23.494Z,13.47
2023-10-13T11:06:59.777Z,13.67
2023-10-13T11:12:30.257Z,13.88
2023-10-13T11:18:00.333Z,14.38
2023-10-13T11:23:30.626Z,14.75
2023-10-13T11:28:49.638Z,15.43
2023-10-13T11:34:17.618Z,15.74
2023-10-13T11:39:43.854Z,15.72
2023-10-13T11:45:24.905Z,15.64
2023-10-13T11:50:47.773Z,15.66
2023-10-13T11:56:11.286Z,15.65
2023-10-13T12:01:48.480Z,15.56
2023-10-13T12:07:49.953Z,15.68
2023-10-13T12:13:13.747Z,15.69
2023-10-13T12:18:36.955Z,15.76
2023-10-13T12:24:02.435Z,15.84
2023-10-13T12:29:30.750Z,15.78
2023-10-13T12:35:08.172Z,15.73
2023-10-13T12:40:50.626Z,15.71
2023-10-13T12:46:31.126Z,15.65
2023-10-13T12:51:55.598Z,15.60
2023-10-13T12:57:20.004Z,15.58
2023-10-13T13:02:43.246Z,15.58
2023-10-13T13:08:07.215Z,15.62
2023-10-13T13:13:31.424Z,15.68
2023-10-13T13:24:29.956Z,15.93
2023-10-13T13:29:57.878Z,15.98
2023-10-13T13:35:20.923Z,16.08
2023-10-13T13:40:47.622Z,16.20
2023-10-13T13:46:17.187Z,16.39
2023-10-13T13:51:41.179Z,16.49
2023-10-13T13:57:05.390Z,16.60
2023-10-13T14:02:30.168Z,16.66
2023-10-13T14:07:54.549Z,16.67
2023-10-13T14:13:23.928Z,16.69
2023-10-13T14:18:47.822Z,16.68
2023-10-13T14:24:17.902Z,16.71
2023-10-13T14:29:44.812Z,16.75
2023-10-13T14:40:45.263Z,16.97
2023-10-13T14:46:10.223Z,16.89
2023-10-13T14:51:33.773Z,16.90
2023-10-13T14:56:57.363Z,16.81
2023-10-13T15:02:20.365Z,16.74
2023-10-13T15:07:44.677Z,16.70
2023-10-13T15:13:10.307Z,16.64
2023-10-13T15:18:32.698Z,16.68
2023-10-13T15:23:57.062Z,16.71
2023-10-13T15:29:20.030Z,16.73
2023-10-13T15:34:42.585Z,16.71
2023-10-13T15:40:06.142Z,16.75
2023-10-13T15:45:31.903Z,16.80
2023-10-13T15:50:59.387Z,16.85
2023-10-13T15:56:23.305Z,16.90
2023-10-13T16:01:48.571Z,16.92
2023-10-13T16:07:11.350Z,16.98
2023-10-13T16:12:33.919Z,17.01
2023-10-13T16:17:56.649Z,17.01
2023-10-13T16:23:19.561Z,16.99
2023-10-13T16:28:43.647Z,17.01
2023-10-13T16:34:09.206Z,16.97
2023-10-13T16:39:32.350Z,16.96
2023-10-13T16:44:55.580Z,16.98
2023-10-13T16:50:19.660Z,16.98
2023-10-13T16:55:44.779Z,16.96
2023-10-13T17:01:09.268Z,16.97
2023-10-13T17:06:32.277Z,16.92
2023-10-13T17:11:54.755Z,16.87
2023-10-13T17:17:17.608Z,16.87
2023-10-13T17:22:42.640Z,16.82
2023-10-13T17:28:09.483Z,16.83
2023-10-13T17:33:43.158Z,16.91
2023-10-13T17:39:09.555Z,16.83
2023-10-13T17:44:33.446Z,16.83
2023-10-13T17:49:56.994Z,16.93
2023-10-13T17:55:21.591Z,17.03
2023-10-13T18:00:46.728Z,17.21
2023-10-13T18:06:16.949Z,17.42
2023-10-13T18:11:43.683Z,17.53
2023-10-13T18:17:09.911Z,17.61
2023-10-13T18:22:34.555Z,17.64
2023-10-13T18:27:57.942Z,17.68
2023-10-13T18:33:21.924Z,17.75
2023-10-13T18:38:46.149Z,17.72
2023-10-13T18:44:11.054Z,17.72
2023-10-13T18:49:37.559Z,17.81
2023-10-13T18:55:04.289Z,17.81
2023-10-13T19:00:27.960Z,17.80
2023-10-13T19:05:51.426Z,17.74
2023-10-13T19:11:17.204Z,17.73
2023-10-13T19:16:41.911Z,17.71
2023-10-13T19:22:07.914Z,17.70
2023-10-13T19:27:31.659Z,17.70
2023-10-13T19:32:56.910Z,17.74
2023-10-13T19:38:21.314Z,17.84
2023-10-13T19:43:46.523Z,17.85
2023-10-13T19:49:10.893Z,17.83
2023-10-13T19:54:34.598Z,17.93
2023-10-13T20:00:00.036Z,18.01
2023-10-13T20:05:26.278Z,18.00
2023-10-13T20:10:52.214Z,18.13
2023-10-13T20:21:51.070Z,18.32
2023-10-13T20:27:14.738Z,18.20
2023-10-13T20:32:38.803Z,18.25
2023-10-13T20:38:03.901Z,18.33
2023-10-13T20:43:27.864Z,18.44
2023-10-13T20:48:54.926Z,18.58
2023-10-13T20:54:19.764Z,18.41
2023-10-13T20:59:45.003Z,18.46
2023-10-13T21:05:10.352Z,18.51
2023-10-13T21:10:37.128Z,18.48
2023-10-13T21:16:01.788Z,18.46
2023-10-13T21:21:31.469Z,18.24
2023-10-13T21:26:54.731Z,18.11
2023-10-13T21:32:18.929Z,18.09
2023-10-13T21:37:43.629Z,18.05
2023-10-13T21:43:08.252Z,18.17
2023-10-13T21:48:31.996Z,18.13
2023-10-13T21:53:56.696Z,18.21
2023-10-13T21:59:21.408Z,18.23
2023-10-13T22:04:46.877Z,18.11
2023-10-13T22:10:11.629Z,17.99
2023-10-13T22:15:38.832Z,18.03
2023-10-13T22:21:03.915Z,18.08
2023-10-13T22:26:33.246Z,18.17
2023-10-13T22:31:57.176Z,18.20
2023-10-13T22:37:22.515Z,18.20
2023-10-13T22:42:47.806Z,18.19
2023-10-13T22:48:16.097Z,18.30
2023-10-13T22:53:39.336Z,18.42
2023-10-13T22:59:03.174Z,18.43
2023-10-13T23:04:27.360Z,18.49
2023-10-13T23:09:51.521Z,18.51
2023-10-13T23:15:16.810Z,18.52
2023-10-13T23:20:41.423Z,18.58
2023-10-13T23:26:06.122Z,18.63
2023-10-13T23:31:31.124Z,18.70
2023-10-13T23:36:55.116Z,18.71
2023-10-13T23:42:21.609Z,18.75
2023-10-13T23:47:48.358Z,18.86
2023-10-13T23:53:15.461Z,18.85
2023-10-13T23:58:40.257Z,18.86
